createdAt,value
2022-12-04T00:00:22.794Z,21.90
2022-12-04T00:05:26.348Z,21.80
2022-12-04T00:10:31.462Z,21.80
2022-12-04T00:15:35.057Z,21.80
2022-12-04T00:20:41.409Z,21.70
2022-12-04T00:25:48.686Z,21.70
2022-12-04T00:30:52.391Z,21.60
2022-12-04T00:36:01.072Z,21.60
2022-12-04T00:41:06.841Z,21.60
2022-12-04T00:46:11.026Z,21.50
2022-12-04T00:51:18.667Z,21.50
2022-12-04T00:56:27.578Z,21.50
2022-12-04T01:01:32.043Z,21.40
2022-12-04T01:06:36.715Z,21.40
2022-12-04T01:11:41.751Z,21.40
2022-12-04T01:16:45.478Z,21.40
2022-12-04T01:21:49.187Z,21.40
2022-12-04T01:26:54.095Z,21.50
2022-12-04T01:31:57.661Z,21.60
2022-12-04T01:37:01.337Z,21.60
2022-12-04T01:42:06.693Z,21.60
2022-12-04T01:47:12.725Z,21.60
2022-12-04T01:52:23.156Z,21.60
2022-12-04T01:57:33.138Z,21.60
2022-12-04T02:02:41.259Z,21.60
2022-12-04T02:07:50.381Z,21.60
2022-12-04T02:13:07.472Z,21.50
2022-12-04T02:18:21.927Z,21.50
2022-12-04T02:23:59.252Z,21.50
2022-12-04T02:29:12.001Z,21.50
2022-12-04T02:34:22.893Z,21.40
2022-12-04T02:39:37.758Z,21.40
2022-12-04T02:44:48.405Z,21.40
2022-12-04T02:49:58.291Z,21.40
2022-12-04T02:55:08.858Z,21.30
2022-12-04T03:00:16.743Z,21.40
2022-12-04T03:05:25.487Z,21.40
2022-12-04T03:10:36.059Z,21.40
2022-12-04T03:15:46.562Z,21.50
2022-12-04T03:20:56.520Z,21.50
2022-12-04T03:26:06.415Z,21.50
2022-12-04T03:31:12.670Z,21.50
2022-12-04T03:36:22.793Z,21.50
2022-12-04T03:41:32.763Z,21.50
2022-12-04T03:46:44.405Z,21.50
2022-12-04T03:51:56.375Z,21.40
2022-12-04T03:57:07.906Z,21.40
2022-12-04T04:02:19.461Z,21.40
2022-12-04T04:07:35.129Z,21.40
2022-12-04T04:13:07.787Z,21.30
2022-12-04T04:18:30.635Z,21.30
2022-12-04T04:23:57.626Z,21.30
2022-12-04T04:29:01.279Z,21.30
2022-12-04T04:34:15.882Z,21.20
2022-12-04T04:39:31.041Z,21.20
2022-12-04T04:44:42.768Z,21.20
2022-12-04T04:49:50.526Z,21.10
2022-12-04T04:54:54.095Z,21.10
2022-12-04T04:59:57.971Z,21.00
2022-12-04T05:05:03.112Z,21.10
2022-12-04T05:10:10.266Z,21.00
2022-12-04T05:15:14.055Z,21.00
2022-12-04T05:20:19.225Z,21.00
2022-12-04T05:25:22.707Z,20.90
2022-12-04T05:30:26.383Z,20.90
2022-12-04T05:35:31.352Z,20.90
2022-12-04T05:40:34.897Z,20.90
2022-12-04T05:45:39.328Z,20.90
2022-12-04T05:50:44.413Z,20.80
2022-12-04T05:55:57.154Z,20.80
2022-12-04T06:01:00.745Z,20.80
2022-12-04T06:06:05.988Z,20.80
2022-12-04T06:11:13.820Z,20.80
2022-12-04T06:16:19.053Z,20.70
2022-12-04T06:21:27.018Z,20.70
2022-12-04T06:26:30.924Z,20.70
2022-12-04T06:31:36.358Z,20.70
2022-12-04T06:36:41.359Z,20.70
2022-12-04T06:41:44.955Z,20.70
2022-12-04T06:46:50.437Z,20.70
2022-12-04T06:51:55.374Z,20.70
2022-12-04T06:56:58.917Z,20.70
2022-12-04T07:02:02.483Z,20.70
2022-12-04T07:07:10.287Z,20.70
2022-12-04T07:12:13.711Z,20.70
2022-12-04T07:17:17.362Z,20.70
2022-12-04T07:22:22.308Z,20.70
2022-12-04T07:27:25.808Z,20.80
2022-12-04T07:32:29.362Z,20.80
2022-12-04T07:37:38.007Z,20.80
2022-12-04T07:42:41.734Z,20.80
2022-12-04T07:47:45.257Z,20.80
2022-12-04T07:52:50.171Z,20.80
2022-12-04T07:57:53.683Z,20.80
2022-12-04T08:02:57.459Z,20.80
2022-12-04T08:08:02.580Z,20.90
2022-12-04T08:13:06.110Z,20.90
2022-12-04T08:18:09.719Z,20.90
2022-12-04T08:23:14.720Z,20.90
2022-12-04T08:28:18.257Z,20.90
2022-12-04T08:33:21.878Z,20.90
2022-12-04T08:38:26.815Z,20.90
2022-12-04T08:43:30.879Z,20.90
2022-12-04T08:48:35.612Z,20.90
2022-12-04T08:53:40.473Z,21.00
2022-12-04T08:58:44.107Z,20.90
2022-12-04T09:03:47.753Z,21.00
2022-12-04T09:08:56.336Z,21.00
2022-12-04T09:14:02.866Z,21.10
2022-12-04T09:19:06.505Z,21.00
2022-12-04T09:24:11.473Z,21.00
2022-12-04T09:29:15.115Z,20.80
2022-12-04T09:34:18.910Z,20.70
2022-12-04T09:39:23.895Z,20.70
2022-12-04T09:44:33.402Z,20.60
2022-12-04T09:49:43.434Z,20.60
2022-12-04T09:54:49.406Z,20.60
2022-12-04T09:59:54.920Z,20.70
2022-12-04T10:04:58.664Z,20.60
2022-12-04T10:10:14.419Z,20.50
2022-12-04T10:15:31.357Z,20.40
2022-12-04T10:20:56.551Z,20.20
2022-12-04T10:26:03.882Z,20.20
2022-12-04T10:31:15.567Z,20.20
2022-12-04T10:36:23.464Z,20.20
2022-12-04T10:41:37.178Z,20.20
2022-12-04T10:46:45.755Z,20.20
2022-12-04T10:51:53.049Z,20.20
2022-12-04T10:57:02.678Z,20.20
2022-12-04T11:02:23.070Z,20.10
2022-12-04T11:07:29.827Z,20.10
2022-12-04T11:12:35.379Z,20.10
2022-12-04T11:17:39.066Z,20.00
2022-12-04T11:22:53.361Z,20.00
2022-12-04T11:28:03.621Z,20.00
2022-12-04T11:33:19.003Z,20.00
2022-12-04T11:38:28.255Z,19.90
2022-12-04T11:43:34.594Z,19.90
2022-12-04T11:48:46.721Z,19.90
2022-12-04T11:53:55.889Z,19.90
2022-12-04T11:59:35.689Z,19.90
2022-12-04T12:05:28.572Z,19.90
2022-12-04T12:10:44.767Z,19.80
2022-12-04T12:16:01.647Z,19.80
2022-12-04T12:21:13.282Z,19.80
2022-12-04T12:26:19.992Z,19.70
2022-12-04T12:31:56.622Z,19.70
2022-12-04T12:37:05.555Z,19.70
2022-12-04T12:42:19.476Z,19.70
2022-12-04T12:47:29.556Z,19.70
2022-12-04T12:52:42.206Z,19.70
2022-12-04T12:57:53.466Z,19.90
2022-12-04T13:03:06.445Z,20.20
2022-12-04T13:08:23.016Z,20.50
2022-12-04T13:13:31.436Z,20.90
2022-12-04T13:18:45.334Z,21.20
2022-12-04T13:24:05.681Z,21.30
2022-12-04T13:29:38.027Z,21.30
2022-12-04T13:35:00.836Z,21.30
2022-12-04T13:40:47.837Z,21.30
2022-12-04T13:45:55.587Z,21.20
2022-12-04T13:51:34.601Z,21.20
2022-12-04T13:56:39.695Z,21.20
2022-12-04T14:01:50.113Z,21.20
2022-12-04T14:06:58.862Z,21.10
2022-12-04T14:12:05.607Z,21.10
2022-12-04T14:17:21.913Z,21.00
2022-12-04T14:22:42.967Z,20.90
2022-12-04T14:27:51.896Z,20.90
2022-12-04T14:33:03.758Z,20.80
2022-12-04T14:38:18.247Z,20.80
2022-12-04T14:43:26.086Z,20.80
2022-12-04T14:48:41.411Z,20.70
2022-12-04T14:53:53.981Z,20.70
2022-12-04T14:58:59.292Z,20.60
2022-12-04T15:04:14.741Z,20.60
2022-12-04T15:09:41.941Z,20.60
2022-12-04T15:14:48.664Z,20.50
2022-12-04T15:19:52.143Z,20.50
2022-12-04T15:24:57.882Z,20.60
2022-12-04T15:30:04.078Z,20.80
2022-12-04T15:35:16.939Z,21.10
2022-12-04T15:40:26.744Z,21.30
2022-12-04T15:45:34.432Z,21.30
2022-12-04T15:50:38.099Z,21.30
2022-12-04T15:55:55.816Z,21.30
2022-12-04T16:01:04.650Z,21.30
2022-12-04T16:06:21.144Z,21.30
2022-12-04T16:11:34.373Z,21.30
2022-12-04T16:16:42.362Z,21.20
2022-12-04T16:21:46.855Z,21.20
2022-12-04T16:26:56.139Z,21.10
2022-12-04T16:32:03.283Z,21.00
2022-12-04T16:37:14.062Z,21.10
2022-12-04T16:42:24.238Z,21.00
2022-12-04T16:47:28.183Z,21.00
2022-12-04T16:52:31.954Z,20.90
2022-12-04T16:57:37.016Z,20.90
2022-12-04T17:02:40.610Z,20.90
2022-12-04T17:07:44.408Z,20.80
2022-12-04T17:12:50.111Z,20.80
2022-12-04T17:17:54.078Z,20.70
2022-12-04T17:22:58.180Z,20.70
2022-12-04T17:28:03.235Z,20.60
2022-12-04T17:33:07.371Z,20.80
2022-12-04T17:38:11.250Z,20.90
2022-12-04T17:43:21.750Z,21.20
2022-12-04T17:48:27.455Z,21.60
2022-12-04T17:53:31.007Z,21.60
2022-12-04T17:58:37.198Z,21.50
2022-12-04T18:03:43.419Z,21.50
2022-12-04T18:08:50.266Z,21.50
2022-12-04T18:14:01.294Z,21.40
2022-12-04T18:19:06.349Z,21.40
2022-12-04T18:24:10.453Z,21.40
2022-12-04T18:29:19.862Z,21.30
2022-12-04T18:34:24.102Z,21.20
2022-12-04T18:39:28.294Z,21.20
2022-12-04T18:44:33.452Z,21.10
2022-12-04T18:49:36.997Z,21.10
2022-12-04T18:54:40.662Z,21.10
2022-12-04T18:59:45.887Z,21.10
2022-12-04T19:04:49.602Z,21.00
2022-12-04T19:10:10.811Z,20.90
2022-12-04T19:15:21.811Z,20.90
2022-12-04T19:20:25.472Z,20.90
2022-12-04T19:25:29.036Z,20.80
2022-12-04T19:30:35.375Z,20.80
2022-12-04T19:35:39.232Z,20.70
2022-12-04T19:40:43.053Z,20.70
2022-12-04T19:45:50.965Z,20.90
2022-12-04T19:50:54.704Z,21.20
2022-12-04T19:55:58.599Z,21.60
2022-12-04T20:01:05.548Z,21.80
2022-12-04T20:06:13.726Z,21.90
2022-12-04T20:11:20.043Z,21.90
2022-12-04T20:16:28.069Z,21.90
2022-12-04T20:21:32.585Z,21.90
2022-12-04T20:26:39.457Z,21.80
2022-12-04T20:31:46.877Z,21.80
2022-12-04T20:36:51.247Z,21.80
2022-12-04T20:41:55.049Z,21.70
2022-12-04T20:47:00.367Z,21.70
2022-12-04T20:52:04.965Z,21.60
2022-12-04T20:57:08.632Z,21.60
2022-12-04T21:02:14.523Z,21.50
2022-12-04T21:07:18.261Z,21.40
2022-12-04T21:12:43.143Z,21.40
2022-12-04T21:17:48.419Z,21.30
2022-12-04T21:22:51.942Z,21.30
2022-12-04T21:27:55.686Z,21.30
2022-12-04T21:33:00.671Z,21.20
2022-12-04T21:38:04.222Z,21.20
2022-12-04T21:43:07.798Z,21.10
2022-12-04T21:48:13.178Z,21.10
2022-12-04T21:53:16.756Z,21.00
2022-12-04T21:58:22.832Z,21.00
2022-12-04T22:03:28.030Z,20.90
2022-12-04T22:08:32.035Z,20.90
2022-12-04T22:13:36.716Z,20.80
2022-12-04T22:18:42.265Z,20.80
2022-12-04T22:23:45.962Z,20.90
2022-12-04T22:28:49.658Z,21.00
2022-12-04T22:33:57.883Z,21.30
2022-12-04T22:39:10.387Z,21.50
2022-12-04T22:44:14.665Z,21.60
2022-12-04T22:49:19.858Z,21.60
2022-12-04T22:54:23.396Z,21.60
2022-12-04T22:59:26.916Z,21.60
2022-12-04T23:04:31.880Z,21.60
2022-12-04T23:09:35.858Z,21.60
2022-12-04T23:14:39.449Z,21.50
2022-12-04T23:19:44.340Z,21.50
2022-12-04T23:24:48.174Z,21.50
2022-12-04T23:29:54.007Z,21.50
2022-12-04T23:34:58.977Z,21.40
2022-12-04T23:40:02.878Z,21.40
2022-12-04T23:45:08.392Z,21.30
2022-12-04T23:50:13.642Z,21.30
2022-12-04T23:55:17.429Z,21.30
